Keewatin, Minnesota
Current Conditions -  °F | °C
As of 2:53 AM on Saturday 22 Nov 2014 (Local Time) from KHIB Reporting Station
Clear Clear  
Wind Chill: 19°   Ceiling: Unl
Heat Index: 27°   Visibility: 9mi
Dew Point: 22°   Wind: 7mph
Humidity: 81%   Direction: 200°SSW
Pressure: 29.66"   Gusts: NA
Location:  47.4°N, 93.07°W
Report Text: KHIB 220853Z AUTO 20006KT 9SM CLR M03/M06 A2966 RMK AO2 SLP062 T10281056 58010
Loading
Personal Weather Stations






























Interactive Weather Map New forecast layout! Learn more

10-Day Weather Forecast

Advertisements
Track Severe Weather on mobile